sensor_id;sensor_type;location;lat;lon;timestamp;P1;durP1;ratioP1;P2;durP2;ratioP2
36213;SDS011;37652;50.400;30.628;2022-10-30T00:00:18;17.42;;;10.30;;
36213;SDS011;37652;50.400;30.628;2022-10-30T00:02:19;14.15;;;8.80;;
36213;SDS011;37652;50.400;30.628;2022-10-30T00:06:21;17.15;;;9.95;;
36213;SDS011;37652;50.400;30.628;2022-10-30T00:08:22;16.13;;;9.98;;
36213;SDS011;37652;50.400;30.628;2022-10-30T00:10:26;12.07;;;9.80;;
36213;SDS011;37652;50.400;30.628;2022-10-30T00:12:27;20.20;;;9.38;;
36213;SDS011;37652;50.400;30.628;2022-10-30T00:14:28;13.02;;;9.15;;
36213;SDS011;37652;50.400;30.628;2022-10-30T00:16:29;14.68;;;9.85;;
36213;SDS011;37652;50.400;30.628;2022-10-30T00:18:30;15.85;;;8.90;;
36213;SDS011;37652;50.400;30.628;2022-10-30T00:20:31;12.00;;;8.60;;
36213;SDS011;37652;50.400;30.628;2022-10-30T00:22:32;17.60;;;10.15;;
36213;SDS011;37652;50.400;30.628;2022-10-30T00:24:34;13.85;;;9.00;;
36213;SDS011;37652;50.400;30.628;2022-10-30T00:26:35;13.50;;;8.70;;
36213;SDS011;37652;50.400;30.628;2022-10-30T00:28:36;15.98;;;9.57;;
36213;SDS011;37652;50.400;30.628;2022-10-30T00:30:37;19.42;;;9.50;;
36213;SDS011;37652;50.400;30.628;2022-10-30T00:32:38;13.80;;;8.50;;
36213;SDS011;37652;50.400;30.628;2022-10-30T00:34:39;13.75;;;9.15;;
36213;SDS011;37652;50.400;30.628;2022-10-30T00:36:40;11.52;;;8.15;;
36213;SDS011;37652;50.400;30.628;2022-10-30T00:38:41;16.05;;;8.98;;
36213;SDS011;37652;50.400;30.628;2022-10-30T00:40:42;14.18;;;9.45;;
36213;SDS011;37652;50.400;30.628;2022-10-30T00:42:43;13.80;;;7.65;;
36213;SDS011;37652;50.400;30.628;2022-10-30T00:46:45;14.73;;;8.25;;
36213;SDS011;37652;50.400;30.628;2022-10-30T00:48:53;11.43;;;8.73;;
36213;SDS011;37652;50.400;30.628;2022-10-30T00:50:58;12.70;;;8.45;;
36213;SDS011;37652;50.400;30.628;2022-10-30T00:53:04;14.23;;;8.63;;
36213;SDS011;37652;50.400;30.628;2022-10-30T00:55:11;9.18;;;7.70;;
36213;SDS011;37652;50.400;30.628;2022-10-30T00:57:13;15.43;;;8.15;;
36213;SDS011;37652;50.400;30.628;2022-10-30T00:59:15;10.60;;;7.78;;
36213;SDS011;37652;50.400;30.628;2022-10-30T01:01:21;10.93;;;7.53;;
36213;SDS011;37652;50.400;30.628;2022-10-30T01:03:24;12.35;;;8.10;;
36213;SDS011;37652;50.400;30.628;2022-10-30T01:05:27;13.10;;;7.38;;
36213;SDS011;37652;50.400;30.628;2022-10-30T01:07:31;12.35;;;7.45;;
36213;SDS011;37652;50.400;30.628;2022-10-30T01:09:32;11.63;;;7.30;;
36213;SDS011;37652;50.400;30.628;2022-10-30T01:11:33;10.10;;;7.18;;
36213;SDS011;37652;50.400;30.628;2022-10-30T01:13:34;13.48;;;7.30;;
36213;SDS011;37652;50.400;30.628;2022-10-30T01:15:43;9.93;;;6.68;;
36213;SDS011;37652;50.400;30.628;2022-10-30T01:24:40;14.00;;;6.78;;
36213;SDS011;37652;50.400;30.628;2022-10-30T01:27:08;9.18;;;6.60;;
36213;SDS011;37652;50.400;30.628;2022-10-30T01:29:29;12.68;;;7.07;;
36213;SDS011;37652;50.400;30.628;2022-10-30T01:33:54;10.88;;;6.70;;
36213;SDS011;37652;50.400;30.628;2022-10-30T01:38:43;9.35;;;6.90;;
36213;SDS011;37652;50.400;30.628;2022-10-30T01:40:46;9.93;;;6.05;;
36213;SDS011;37652;50.400;30.628;2022-10-30T01:42:49;10.60;;;6.60;;
36213;SDS011;37652;50.400;30.628;2022-10-30T01:44:51;10.10;;;6.05;;
36213;SDS011;37652;50.400;30.628;2022-10-30T01:56:38;8.50;;;6.32;;
36213;SDS011;37652;50.400;30.628;2022-10-30T01:59:06;15.48;;;6.38;;
36213;SDS011;37652;50.400;30.628;2022-10-30T02:01:09;9.88;;;6.15;;
36213;SDS011;37652;50.400;30.628;2022-10-30T02:03:10;9.35;;;6.03;;
36213;SDS011;37652;50.400;30.628;2022-10-30T02:05:16;9.07;;;6.70;;
36213;SDS011;37652;50.400;30.628;2022-10-30T02:07:39;13.50;;;6.15;;
36213;SDS011;37652;50.400;30.628;2022-10-30T02:09:40;8.95;;;6.82;;
36213;SDS011;37652;50.400;30.628;2022-10-30T02:13:44;9.77;;;6.30;;
36213;SDS011;37652;50.400;30.628;2022-10-30T02:15:45;8.60;;;5.80;;
36213;SDS011;37652;50.400;30.628;2022-10-30T02:17:47;12.38;;;6.28;;
36213;SDS011;37652;50.400;30.628;2022-10-30T02:19:48;7.07;;;5.88;;
36213;SDS011;37652;50.400;30.628;2022-10-30T02:21:49;9.27;;;6.18;;
36213;SDS011;37652;50.400;30.628;2022-10-30T02:23:50;10.73;;;5.93;;
36213;SDS011;37652;50.400;30.628;2022-10-30T02:25:51;8.93;;;6.50;;
36213;SDS011;37652;50.400;30.628;2022-10-30T02:27:52;16.48;;;5.82;;
36213;SDS011;37652;50.400;30.628;2022-10-30T02:29:53;8.65;;;6.05;;
36213;SDS011;37652;50.400;30.628;2022-10-30T02:31:54;14.15;;;6.85;;
36213;SDS011;37652;50.400;30.628;2022-10-30T02:33:55;10.82;;;6.18;;
36213;SDS011;37652;50.400;30.628;2022-10-30T02:35:56;9.18;;;6.25;;
36213;SDS011;37652;50.400;30.628;2022-10-30T02:37:57;9.88;;;5.97;;
36213;SDS011;37652;50.400;30.628;2022-10-30T02:39:58;8.88;;;5.97;;
36213;SDS011;37652;50.400;30.628;2022-10-30T02:41:58;9.68;;;6.20;;
36213;SDS011;37652;50.400;30.628;2022-10-30T02:44:00;9.65;;;5.47;;
36213;SDS011;37652;50.400;30.628;2022-10-30T02:46:02;11.45;;;5.95;;
36213;SDS011;37652;50.400;30.628;2022-10-30T02:48:02;10.27;;;5.93;;
36213;SDS011;37652;50.400;30.628;2022-10-30T02:50:03;8.95;;;5.68;;
36213;SDS011;37652;50.400;30.628;2022-10-30T02:52:07;13.88;;;6.15;;
36213;SDS011;37652;50.400;30.628;2022-10-30T02:54:08;10.65;;;6.57;;
36213;SDS011;37652;50.400;30.628;2022-10-30T02:56:10;9.88;;;6.30;;
36213;SDS011;37652;50.400;30.628;2022-10-30T02:58:12;9.52;;;5.82;;
36213;SDS011;37652;50.400;30.628;2022-10-30T03:00:13;10.68;;;5.93;;
36213;SDS011;37652;50.400;30.628;2022-10-30T03:02:14;11.88;;;5.97;;
36213;SDS011;37652;50.400;30.628;2022-10-30T03:04:15;7.93;;;5.90;;
36213;SDS011;37652;50.400;30.628;2022-10-30T03:06:16;10.82;;;5.82;;
36213;SDS011;37652;50.400;30.628;2022-10-30T03:08:17;8.82;;;5.80;;
36213;SDS011;37652;50.400;30.628;2022-10-30T03:10:18;10.77;;;5.85;;
36213;SDS011;37652;50.400;30.628;2022-10-30T03:12:19;7.93;;;6.18;;
36213;SDS011;37652;50.400;30.628;2022-10-30T03:16:22;11.47;;;5.97;;
36213;SDS011;37652;50.400;30.628;2022-10-30T03:18:24;9.05;;;5.70;;
36213;SDS011;37652;50.400;30.628;2022-10-30T03:20:25;9.68;;;6.00;;
36213;SDS011;37652;50.400;30.628;2022-10-30T03:22:26;10.00;;;6.13;;
36213;SDS011;37652;50.400;30.628;2022-10-30T03:24:26;8.60;;;6.00;;
36213;SDS011;37652;50.400;30.628;2022-10-30T03:26:27;9.88;;;6.13;;
36213;SDS011;37652;50.400;30.628;2022-10-30T03:28:29;7.88;;;5.60;;
36213;SDS011;37652;50.400;30.628;2022-10-30T03:30:30;13.10;;;6.28;;
36213;SDS011;37652;50.400;30.628;2022-10-30T03:32:31;7.93;;;5.47;;
36213;SDS011;37652;50.400;30.628;2022-10-30T03:34:32;10.07;;;6.28;;
36213;SDS011;37652;50.400;30.628;2022-10-30T03:36:33;7.75;;;5.80;;
36213;SDS011;37652;50.400;30.628;2022-10-30T03:38:34;13.63;;;6.40;;
36213;SDS011;37652;50.400;30.628;2022-10-30T03:40:35;9.40;;;5.95;;
36213;SDS011;37652;50.400;30.628;2022-10-30T03:42:38;8.55;;;5.45;;
36213;SDS011;37652;50.400;30.628;2022-10-30T03:44:40;8.50;;;6.13;;
36213;SDS011;37652;50.400;30.628;2022-10-30T03:46:41;9.38;;;5.90;;
36213;SDS011;37652;50.400;30.628;2022-10-30T03:48:42;11.40;;;5.68;;
36213;SDS011;37652;50.400;30.628;2022-10-30T03:50:43;11.90;;;6.72;;
36213;SDS011;37652;50.400;30.628;2022-10-30T03:52:44;8.88;;;5.95;;
36213;SDS011;37652;50.400;30.628;2022-10-30T03:54:45;11.80;;;5.80;;
36213;SDS011;37652;50.400;30.628;2022-10-30T03:56:46;9.80;;;6.03;;
36213;SDS011;37652;50.400;30.628;2022-10-30T03:58:47;10.77;;;5.90;;
36213;SDS011;37652;50.400;30.628;2022-10-30T04:00:47;6.95;;;4.68;;
36213;SDS011;37652;50.400;30.628;2022-10-30T04:02:49;9.38;;;5.15;;
36213;SDS011;37652;50.400;30.628;2022-10-30T04:04:50;7.70;;;5.40;;
36213;SDS011;37652;50.400;30.628;2022-10-30T04:06:51;7.00;;;5.63;;
36213;SDS011;37652;50.400;30.628;2022-10-30T04:08:53;9.15;;;5.30;;
36213;SDS011;37652;50.400;30.628;2022-10-30T04:10:54;9.63;;;5.28;;
36213;SDS011;37652;50.400;30.628;2022-10-30T04:12:58;9.07;;;4.70;;
36213;SDS011;37652;50.400;30.628;2022-10-30T04:15:04;8.90;;;5.85;;
36213;SDS011;37652;50.400;30.628;2022-10-30T04:17:06;6.00;;;4.75;;
36213;SDS011;37652;50.400;30.628;2022-10-30T04:19:07;11.07;;;5.38;;
36213;SDS011;37652;50.400;30.628;2022-10-30T04:21:08;9.00;;;5.13;;
36213;SDS011;37652;50.400;30.628;2022-10-30T04:23:11;10.15;;;5.25;;
36213;SDS011;37652;50.400;30.628;2022-10-30T04:25:14;6.97;;;4.45;;
36213;SDS011;37652;50.400;30.628;2022-10-30T04:27:15;11.68;;;4.60;;
36213;SDS011;37652;50.400;30.628;2022-10-30T04:31:17;6.10;;;5.10;;
36213;SDS011;37652;50.400;30.628;2022-10-30T04:33:18;7.72;;;4.55;;
36213;SDS011;37652;50.400;30.628;2022-10-30T04:35:20;8.55;;;4.70;;
36213;SDS011;37652;50.400;30.628;2022-10-30T04:37:22;12.23;;;6.10;;
36213;SDS011;37652;50.400;30.628;2022-10-30T04:39:23;5.78;;;5.05;;
36213;SDS011;37652;50.400;30.628;2022-10-30T04:41:24;7.60;;;4.57;;
36213;SDS011;37652;50.400;30.628;2022-10-30T04:43:26;5.68;;;5.10;;
36213;SDS011;37652;50.400;30.628;2022-10-30T04:45:26;6.97;;;4.30;;
36213;SDS011;37652;50.400;30.628;2022-10-30T04:47:28;6.25;;;4.88;;
36213;SDS011;37652;50.400;30.628;2022-10-30T04:49:29;7.60;;;4.38;;
36213;SDS011;37652;50.400;30.628;2022-10-30T04:51:30;9.20;;;4.95;;
36213;SDS011;37652;50.400;30.628;2022-10-30T04:53:31;7.88;;;4.43;;
36213;SDS011;37652;50.400;30.628;2022-10-30T04:55:32;10.18;;;5.15;;
36213;SDS011;37652;50.400;30.628;2022-10-30T04:57:33;9.98;;;4.43;;
36213;SDS011;37652;50.400;30.628;2022-10-30T04:59:35;4.57;;;4.18;;
36213;SDS011;37652;50.400;30.628;2022-10-30T05:01:36;6.30;;;4.60;;
36213;SDS011;37652;50.400;30.628;2022-10-30T05:03:37;7.60;;;4.68;;
36213;SDS011;37652;50.400;30.628;2022-10-30T05:05:38;7.95;;;4.40;;
36213;SDS011;37652;50.400;30.628;2022-10-30T05:07:39;6.47;;;4.05;;
36213;SDS011;37652;50.400;30.628;2022-10-30T05:09:40;11.30;;;5.15;;
36213;SDS011;37652;50.400;30.628;2022-10-30T05:11:41;7.25;;;4.18;;
36213;SDS011;37652;50.400;30.628;2022-10-30T05:13:42;6.65;;;4.07;;
36213;SDS011;37652;50.400;30.628;2022-10-30T05:15:43;8.45;;;4.07;;
36213;SDS011;37652;50.400;30.628;2022-10-30T05:17:44;7.38;;;4.00;;
36213;SDS011;37652;50.400;30.628;2022-10-30T05:19:45;7.57;;;3.83;;
36213;SDS011;37652;50.400;30.628;2022-10-30T05:21:46;8.10;;;4.85;;
36213;SDS011;37652;50.400;30.628;2022-10-30T05:23:46;8.02;;;4.03;;
36213;SDS011;37652;50.400;30.628;2022-10-30T05:25:47;9.88;;;6.72;;
36213;SDS011;37652;50.400;30.628;2022-10-30T05:27:48;6.65;;;4.30;;
36213;SDS011;37652;50.400;30.628;2022-10-30T05:29:49;9.73;;;3.63;;
36213;SDS011;37652;50.400;30.628;2022-10-30T05:31:50;7.95;;;3.53;;
36213;SDS011;37652;50.400;30.628;2022-10-30T05:33:51;10.40;;;3.20;;
36213;SDS011;37652;50.400;30.628;2022-10-30T05:35:52;6.88;;;3.55;;
36213;SDS011;37652;50.400;30.628;2022-10-30T05:37:53;3.80;;;3.30;;
36213;SDS011;37652;50.400;30.628;2022-10-30T05:39:54;5.13;;;3.58;;
36213;SDS011;37652;50.400;30.628;2022-10-30T05:41:54;3.90;;;3.50;;
36213;SDS011;37652;50.400;30.628;2022-10-30T05:43:55;6.13;;;3.40;;
36213;SDS011;37652;50.400;30.628;2022-10-30T05:45:56;5.40;;;3.20;;
36213;SDS011;37652;50.400;30.628;2022-10-30T05:48:00;5.22;;;3.00;;
36213;SDS011;37652;50.400;30.628;2022-10-30T05:50:03;5.32;;;3.33;;
36213;SDS011;37652;50.400;30.628;2022-10-30T05:52:04;5.22;;;3.10;;
36213;SDS011;37652;50.400;30.628;2022-10-30T05:54:05;3.15;;;2.60;;
36213;SDS011;37652;50.400;30.628;2022-10-30T05:56:06;5.93;;;3.22;;
36213;SDS011;37652;50.400;30.628;2022-10-30T05:58:08;6.65;;;2.97;;
36213;SDS011;37652;50.400;30.628;2022-10-30T06:00:09;6.35;;;2.92;;
36213;SDS011;37652;50.400;30.628;2022-10-30T06:04:11;7.57;;;2.77;;
36213;SDS011;37652;50.400;30.628;2022-10-30T06:06:11;8.48;;;3.97;;
36213;SDS011;37652;50.400;30.628;2022-10-30T06:08:12;5.20;;;2.50;;
36213;SDS011;37652;50.400;30.628;2022-10-30T06:10:15;4.88;;;2.35;;
36213;SDS011;37652;50.400;30.628;2022-10-30T06:12:16;5.20;;;2.92;;
36213;SDS011;37652;50.400;30.628;2022-10-30T06:14:17;5.88;;;2.70;;
36213;SDS011;37652;50.400;30.628;2022-10-30T06:16:18;8.00;;;2.75;;
36213;SDS011;37652;50.400;30.628;2022-10-30T06:18:19;4.97;;;2.75;;
36213;SDS011;37652;50.400;30.628;2022-10-30T06:20:21;4.00;;;2.33;;
36213;SDS011;37652;50.400;30.628;2022-10-30T06:22:24;4.95;;;2.85;;
36213;SDS011;37652;50.400;30.628;2022-10-30T06:24:25;8.20;;;2.88;;
36213;SDS011;37652;50.400;30.628;2022-10-30T06:26:26;5.60;;;2.92;;
36213;SDS011;37652;50.400;30.628;2022-10-30T06:28:27;8.25;;;6.00;;
36213;SDS011;37652;50.400;30.628;2022-10-30T06:30:27;6.07;;;3.08;;
36213;SDS011;37652;50.400;30.628;2022-10-30T06:34:29;4.50;;;2.47;;
36213;SDS011;37652;50.400;30.628;2022-10-30T06:36:30;5.43;;;2.60;;
36213;SDS011;37652;50.400;30.628;2022-10-30T06:38:31;3.53;;;1.80;;
36213;SDS011;37652;50.400;30.628;2022-10-30T06:40:32;5.50;;;2.10;;
36213;SDS011;37652;50.400;30.628;2022-10-30T06:42:40;3.25;;;2.33;;
36213;SDS011;37652;50.400;30.628;2022-10-30T06:44:44;3.50;;;2.30;;
36213;SDS011;37652;50.400;30.628;2022-10-30T06:46:45;6.32;;;2.10;;
36213;SDS011;37652;50.400;30.628;2022-10-30T06:48:46;4.07;;;2.30;;
36213;SDS011;37652;50.400;30.628;2022-10-30T06:50:52;9.07;;;2.17;;
36213;SDS011;37652;50.400;30.628;2022-10-30T06:52:56;8.95;;;2.53;;
36213;SDS011;37652;50.400;30.628;2022-10-30T06:54:57;4.95;;;2.38;;
36213;SDS011;37652;50.400;30.628;2022-10-30T06:58:59;3.22;;;2.05;;
36213;SDS011;37652;50.400;30.628;2022-10-30T07:01:00;7.50;;;2.17;;
36213;SDS011;37652;50.400;30.628;2022-10-30T07:03:01;4.25;;;1.90;;
36213;SDS011;37652;50.400;30.628;2022-10-30T07:05:03;9.10;;;1.80;;
36213;SDS011;37652;50.400;30.628;2022-10-30T07:07:04;3.35;;;1.45;;
36213;SDS011;37652;50.400;30.628;2022-10-30T07:09:05;8.13;;;1.83;;
36213;SDS011;37652;50.400;30.628;2022-10-30T07:11:06;4.75;;;1.85;;
36213;SDS011;37652;50.400;30.628;2022-10-30T07:13:07;4.93;;;1.73;;
36213;SDS011;37652;50.400;30.628;2022-10-30T07:15:08;8.18;;;1.92;;
36213;SDS011;37652;50.400;30.628;2022-10-30T07:17:09;8.02;;;2.10;;
36213;SDS011;37652;50.400;30.628;2022-10-30T07:19:10;5.10;;;1.73;;
36213;SDS011;37652;50.400;30.628;2022-10-30T07:21:11;5.13;;;1.80;;
36213;SDS011;37652;50.400;30.628;2022-10-30T07:23:12;4.38;;;1.75;;
36213;SDS011;37652;50.400;30.628;2022-10-30T07:25:13;2.95;;;1.77;;
36213;SDS011;37652;50.400;30.628;2022-10-30T07:27:14;10.85;;;2.58;;
36213;SDS011;37652;50.400;30.628;2022-10-30T07:29:15;2.33;;;1.33;;
36213;SDS011;37652;50.400;30.628;2022-10-30T07:31:16;3.58;;;1.65;;
36213;SDS011;37652;50.400;30.628;2022-10-30T07:33:16;4.00;;;1.50;;
36213;SDS011;37652;50.400;30.628;2022-10-30T07:35:17;4.43;;;1.40;;
36213;SDS011;37652;50.400;30.628;2022-10-30T07:37:18;6.28;;;1.67;;
36213;SDS011;37652;50.400;30.628;2022-10-30T07:39:18;10.80;;;1.80;;
36213;SDS011;37652;50.400;30.628;2022-10-30T07:41:19;7.07;;;2.03;;
36213;SDS011;37652;50.400;30.628;2022-10-30T07:43:20;4.28;;;1.67;;
36213;SDS011;37652;50.400;30.628;2022-10-30T07:45:21;8.20;;;2.28;;
36213;SDS011;37652;50.400;30.628;2022-10-30T07:47:22;4.93;;;1.60;;
36213;SDS011;37652;50.400;30.628;2022-10-30T07:49:23;3.45;;;1.50;;
36213;SDS011;37652;50.400;30.628;2022-10-30T07:51:24;4.57;;;1.45;;
36213;SDS011;37652;50.400;30.628;2022-10-30T07:53:25;5.82;;;1.48;;
36213;SDS011;37652;50.400;30.628;2022-10-30T07:55:26;9.02;;;1.60;;
36213;SDS011;37652;50.400;30.628;2022-10-30T07:57:29;8.38;;;1.85;;
36213;SDS011;37652;50.400;30.628;2022-10-30T07:59:31;3.47;;;2.55;;
36213;SDS011;37652;50.400;30.628;2022-10-30T08:01:32;4.78;;;1.30;;
36213;SDS011;37652;50.400;30.628;2022-10-30T08:03:33;3.40;;;1.40;;
36213;SDS011;37652;50.400;30.628;2022-10-30T08:05:34;2.28;;;1.33;;
36213;SDS011;37652;50.400;30.628;2022-10-30T08:07:35;4.07;;;1.50;;
36213;SDS011;37652;50.400;30.628;2022-10-30T08:09:36;3.70;;;1.13;;
36213;SDS011;37652;50.400;30.628;2022-10-30T08:11:37;4.07;;;1.50;;
36213;SDS011;37652;50.400;30.628;2022-10-30T08:13:38;2.88;;;1.20;;
36213;SDS011;37652;50.400;30.628;2022-10-30T08:15:41;4.40;;;1.58;;
36213;SDS011;37652;50.400;30.628;2022-10-30T08:17:46;5.00;;;2.20;;
36213;SDS011;37652;50.400;30.628;2022-10-30T08:19:48;3.25;;;1.70;;
36213;SDS011;37652;50.400;30.628;2022-10-30T08:21:49;5.20;;;1.80;;
36213;SDS011;37652;50.400;30.628;2022-10-30T08:23:50;2.90;;;1.25;;
36213;SDS011;37652;50.400;30.628;2022-10-30T08:25:51;3.45;;;1.23;;
36213;SDS011;37652;50.400;30.628;2022-10-30T08:27:58;2.67;;;1.30;;
36213;SDS011;37652;50.400;30.628;2022-10-30T08:30:00;7.50;;;2.25;;
36213;SDS011;37652;50.400;30.628;2022-10-30T08:32:01;8.07;;;1.92;;
36213;SDS011;37652;50.400;30.628;2022-10-30T08:34:02;3.22;;;1.27;;
36213;SDS011;37652;50.400;30.628;2022-10-30T08:36:04;6.80;;;2.20;;
36213;SDS011;37652;50.400;30.628;2022-10-30T08:38:06;3.80;;;1.20;;
36213;SDS011;37652;50.400;30.628;2022-10-30T08:40:08;3.40;;;1.52;;
36213;SDS011;37652;50.400;30.628;2022-10-30T08:42:09;2.85;;;1.35;;
36213;SDS011;37652;50.400;30.628;2022-10-30T08:44:10;6.32;;;1.63;;
36213;SDS011;37652;50.400;30.628;2022-10-30T08:46:11;5.28;;;1.20;;
36213;SDS011;37652;50.400;30.628;2022-10-30T08:48:13;1.83;;;0.93;;
36213;SDS011;37652;50.400;30.628;2022-10-30T08:50:14;4.60;;;1.38;;
36213;SDS011;37652;50.400;30.628;2022-10-30T08:52:15;1.85;;;1.20;;
36213;SDS011;37652;50.400;30.628;2022-10-30T08:54:16;3.15;;;1.20;;
36213;SDS011;37652;50.400;30.628;2022-10-30T08:56:17;6.75;;;1.83;;
36213;SDS011;37652;50.400;30.628;2022-10-30T08:58:18;2.50;;;1.35;;
36213;SDS011;37652;50.400;30.628;2022-10-30T09:00:19;7.03;;;2.38;;
36213;SDS011;37652;50.400;30.628;2022-10-30T09:02:20;3.28;;;1.77;;
36213;SDS011;37652;50.400;30.628;2022-10-30T09:04:21;3.38;;;1.50;;
36213;SDS011;37652;50.400;30.628;2022-10-30T09:06:22;3.53;;;1.50;;
36213;SDS011;37652;50.400;30.628;2022-10-30T09:08:23;6.30;;;1.25;;
36213;SDS011;37652;50.400;30.628;2022-10-30T09:10:24;4.70;;;2.20;;
36213;SDS011;37652;50.400;30.628;2022-10-30T09:12:25;4.25;;;1.90;;
36213;SDS011;37652;50.400;30.628;2022-10-30T09:14:26;5.13;;;2.00;;
36213;SDS011;37652;50.400;30.628;2022-10-30T09:16:27;3.95;;;1.40;;
36213;SDS011;37652;50.400;30.628;2022-10-30T09:18:28;4.07;;;1.38;;
36213;SDS011;37652;50.400;30.628;2022-10-30T09:20:30;5.10;;;1.67;;
36213;SDS011;37652;50.400;30.628;2022-10-30T09:24:32;4.88;;;1.20;;
36213;SDS011;37652;50.400;30.628;2022-10-30T09:26:33;4.50;;;1.00;;
36213;SDS011;37652;50.400;30.628;2022-10-30T09:28:34;2.90;;;1.05;;
36213;SDS011;37652;50.400;30.628;2022-10-30T09:30:34;2.80;;;1.25;;
36213;SDS011;37652;50.400;30.628;2022-10-30T09:32:35;7.13;;;1.67;;
36213;SDS011;37652;50.400;30.628;2022-10-30T09:34:36;3.97;;;1.42;;
36213;SDS011;37652;50.400;30.628;2022-10-30T09:36:38;5.03;;;1.23;;
36213;SDS011;37652;50.400;30.628;2022-10-30T09:38:42;6.55;;;1.90;;
36213;SDS011;37652;50.400;30.628;2022-10-30T09:42:54;3.35;;;1.30;;
36213;SDS011;37652;50.400;30.628;2022-10-30T09:54:35;4.53;;;1.75;;
36213;SDS011;37652;50.400;30.628;2022-10-30T09:56:43;4.40;;;1.05;;
36213;SDS011;37652;50.400;30.628;2022-10-30T09:58:52;2.15;;;1.30;;
36213;SDS011;37652;50.400;30.628;2022-10-30T10:05:28;5.25;;;1.50;;
36213;SDS011;37652;50.400;30.628;2022-10-30T10:07:36;3.08;;;1.25;;
36213;SDS011;37652;50.400;30.628;2022-10-30T10:09:39;4.25;;;1.40;;
36213;SDS011;37652;50.400;30.628;2022-10-30T10:11:41;4.72;;;1.40;;
36213;SDS011;37652;50.400;30.628;2022-10-30T10:14:02;4.60;;;1.35;;
36213;SDS011;37652;50.400;30.628;2022-10-30T10:16:17;4.25;;;1.73;;
36213;SDS011;37652;50.400;30.628;2022-10-30T10:18:31;7.43;;;1.30;;
36213;SDS011;37652;50.400;30.628;2022-10-30T10:20:37;2.53;;;1.33;;
36213;SDS011;37652;50.400;30.628;2022-10-30T10:22:49;2.78;;;1.33;;
36213;SDS011;37652;50.400;30.628;2022-10-30T10:24:50;8.38;;;1.75;;
36213;SDS011;37652;50.400;30.628;2022-10-30T10:29:21;4.70;;;2.00;;
36213;SDS011;37652;50.400;30.628;2022-10-30T10:31:38;5.03;;;1.52;;
36213;SDS011;37652;50.400;30.628;2022-10-30T10:33:47;5.68;;;1.60;;
36213;SDS011;37652;50.400;30.628;2022-10-30T10:36:15;6.13;;;1.80;;
36213;SDS011;37652;50.400;30.628;2022-10-30T10:49:37;8.35;;;1.45;;
36213;SDS011;37652;50.400;30.628;2022-10-30T10:51:43;3.03;;;1.40;;
36213;SDS011;37652;50.400;30.628;2022-10-30T10:53:46;4.38;;;1.50;;
36213;SDS011;37652;50.400;30.628;2022-10-30T10:55:50;5.70;;;1.60;;
36213;SDS011;37652;50.400;30.628;2022-10-30T10:57:52;3.38;;;1.23;;
36213;SDS011;37652;50.400;30.628;2022-10-30T11:00:06;1.75;;;1.20;;
36213;SDS011;37652;50.400;30.628;2022-10-30T11:06:31;3.17;;;1.55;;
36213;SDS011;37652;50.400;30.628;2022-10-30T11:08:34;5.85;;;1.42;;
36213;SDS011;37652;50.400;30.628;2022-10-30T11:10:36;5.25;;;1.40;;
36213;SDS011;37652;50.400;30.628;2022-10-30T11:12:37;4.13;;;1.23;;
36213;SDS011;37652;50.400;30.628;2022-10-30T11:14:38;2.28;;;1.15;;
36213;SDS011;37652;50.400;30.628;2022-10-30T11:18:51;4.60;;;1.58;;
36213;SDS011;37652;50.400;30.628;2022-10-30T11:21:10;6.32;;;1.90;;
36213;SDS011;37652;50.400;30.628;2022-10-30T11:25:33;5.53;;;1.70;;
36213;SDS011;37652;50.400;30.628;2022-10-30T11:27:35;4.90;;;1.80;;
36213;SDS011;37652;50.400;30.628;2022-10-30T11:29:36;7.53;;;2.30;;
36213;SDS011;37652;50.400;30.628;2022-10-30T11:31:38;5.55;;;1.67;;
36213;SDS011;37652;50.400;30.628;2022-10-30T11:33:40;4.55;;;1.10;;
36213;SDS011;37652;50.400;30.628;2022-10-30T11:35:41;3.35;;;1.50;;
36213;SDS011;37652;50.400;30.628;2022-10-30T11:37:42;4.53;;;1.35;;
36213;SDS011;37652;50.400;30.628;2022-10-30T11:39:44;3.20;;;1.38;;
36213;SDS011;37652;50.400;30.628;2022-10-30T11:42:18;4.53;;;1.63;;
36213;SDS011;37652;50.400;30.628;2022-10-30T11:44:19;4.35;;;1.48;;
36213;SDS011;37652;50.400;30.628;2022-10-30T11:46:21;5.32;;;1.65;;
36213;SDS011;37652;50.400;30.628;2022-10-30T11:48:25;3.38;;;1.50;;
36213;SDS011;37652;50.400;30.628;2022-10-30T11:50:31;4.30;;;1.42;;
36213;SDS011;37652;50.400;30.628;2022-10-30T11:52:37;5.22;;;1.42;;
36213;SDS011;37652;50.400;30.628;2022-10-30T11:54:39;3.90;;;1.33;;
36213;SDS011;37652;50.400;30.628;2022-10-30T11:56:45;2.97;;;1.40;;
36213;SDS011;37652;50.400;30.628;2022-10-30T11:58:49;4.32;;;1.20;;
36213;SDS011;37652;50.400;30.628;2022-10-30T12:01:04;2.40;;;1.20;;
36213;SDS011;37652;50.400;30.628;2022-10-30T12:03:23;1.85;;;0.95;;
36213;SDS011;37652;50.400;30.628;2022-10-30T12:07:30;5.32;;;1.38;;
36213;SDS011;37652;50.400;30.628;2022-10-30T12:09:35;2.38;;;1.00;;
36213;SDS011;37652;50.400;30.628;2022-10-30T12:11:41;6.65;;;1.45;;
36213;SDS011;37652;50.400;30.628;2022-10-30T12:13:43;4.00;;;1.05;;
36213;SDS011;37652;50.400;30.628;2022-10-30T12:17:59;2.30;;;1.00;;
36213;SDS011;37652;50.400;30.628;2022-10-30T12:20:05;3.90;;;1.48;;
36213;SDS011;37652;50.400;30.628;2022-10-30T12:22:22;7.63;;;1.80;;
36213;SDS011;37652;50.400;30.628;2022-10-30T12:26:35;5.00;;;1.23;;
36213;SDS011;37652;50.400;30.628;2022-10-30T12:28:37;2.63;;;1.30;;
36213;SDS011;37652;50.400;30.628;2022-10-30T12:30:47;3.45;;;1.52;;
36213;SDS011;37652;50.400;30.628;2022-10-30T12:32:56;5.03;;;1.50;;
36213;SDS011;37652;50.400;30.628;2022-10-30T12:35:03;4.85;;;1.98;;
36213;SDS011;37652;50.400;30.628;2022-10-30T12:39:23;7.53;;;3.10;;
36213;SDS011;37652;50.400;30.628;2022-10-30T12:41:30;5.93;;;1.60;;
36213;SDS011;37652;50.400;30.628;2022-10-30T12:43:38;2.28;;;1.13;;
36213;SDS011;37652;50.400;30.628;2022-10-30T12:45:40;4.55;;;1.38;;
36213;SDS011;37652;50.400;30.628;2022-10-30T12:47:56;6.22;;;1.73;;
36213;SDS011;37652;50.400;30.628;2022-10-30T12:50:00;4.00;;;1.58;;
36213;SDS011;37652;50.400;30.628;2022-10-30T12:52:09;3.70;;;1.60;;
36213;SDS011;37652;50.400;30.628;2022-10-30T12:54:32;2.83;;;1.30;;
36213;SDS011;37652;50.400;30.628;2022-10-30T12:57:15;5.20;;;1.40;;
36213;SDS011;37652;50.400;30.628;2022-10-30T12:59:39;3.47;;;1.40;;
36213;SDS011;37652;50.400;30.628;2022-10-30T13:01:44;4.30;;;1.42;;
36213;SDS011;37652;50.400;30.628;2022-10-30T13:04:42;2.33;;;1.70;;
36213;SDS011;37652;50.400;30.628;2022-10-30T13:06:34;2.92;;;1.90;;
36213;SDS011;37652;50.400;30.628;2022-10-30T13:08:40;2.80;;;1.25;;
36213;SDS011;37652;50.400;30.628;2022-10-30T13:13:26;6.90;;;2.13;;
36213;SDS011;37652;50.400;30.628;2022-10-30T13:15:39;5.32;;;1.70;;
36213;SDS011;37652;50.400;30.628;2022-10-30T13:17:44;6.00;;;1.90;;
36213;SDS011;37652;50.400;30.628;2022-10-30T13:19:45;6.03;;;1.70;;
36213;SDS011;37652;50.400;30.628;2022-10-30T13:24:10;7.53;;;3.50;;
36213;SDS011;37652;50.400;30.628;2022-10-30T13:28:19;6.72;;;1.30;;
36213;SDS011;37652;50.400;30.628;2022-10-30T13:30:24;6.00;;;1.73;;
36213;SDS011;37652;50.400;30.628;2022-10-30T13:32:34;3.65;;;1.88;;
36213;SDS011;37652;50.400;30.628;2022-10-30T13:36:45;4.78;;;1.67;;
36213;SDS011;37652;50.400;30.628;2022-10-30T13:40:50;5.20;;;1.73;;
36213;SDS011;37652;50.400;30.628;2022-10-30T13:52:19;3.92;;;1.63;;
36213;SDS011;37652;50.400;30.628;2022-10-30T13:54:20;6.72;;;2.00;;
36213;SDS011;37652;50.400;30.628;2022-10-30T13:56:24;3.88;;;1.65;;